Time;durP1;ratioP1;P1;durP2;ratioP2;P2;SDS_P1;SDS_P2;PMS_P1;PMS_P2;Temp;Humidity;BMP_temperature;BMP_pressure;BME280_temperature;BME280_humidity;BME280_pressure;Samples;Min_cycle;Max_cycle;Signal;HPM_P1;HPM_P2
2022/10/06 00:01:05;;;;;;;14.80;8.73;;;17.60;99.90;;;;;;5071690;28;20497;-63
2022/10/06 00:03:33;;;;;;;24.30;12.20;;;17.60;99.90;;;;;;5063462;28;20502;-63
2022/10/06 00:06:00;;;;;;;17.17;9.70;;;17.70;99.90;;;;;;5074640;28;20483;-63
2022/10/06 00:08:28;;;;;;;21.73;11.03;;;17.60;99.90;;;;;;5068282;28;20459;-62
2022/10/06 00:10:55;;;;;;;23.97;10.90;;;17.60;99.90;;;;;;5071507;28;20486;-62
2022/10/06 00:13:22;;;;;;;18.50;7.90;;;17.50;99.90;;;;;;5070346;28;20586;-63
2022/10/06 00:15:50;;;;;;;27.93;8.00;;;17.40;99.90;;;;;;5070261;28;20493;-63
2022/10/06 00:18:16;;;;;;;19.80;10.07;;;17.40;99.90;;;;;;5070232;28;20845;-63
2022/10/06 00:20:44;;;;;;;16.63;9.80;;;17.40;99.90;;;;;;5063763;28;20478;-63
2022/10/06 00:23:11;;;;;;;16.87;7.43;;;17.40;99.90;;;;;;5071639;28;20474;-63
2022/10/06 00:25:38;;;;;;;52.83;11.30;;;17.30;99.90;;;;;;5070774;28;20473;-63
2022/10/06 00:28:05;;;;;;;26.67;13.07;;;17.20;99.90;;;;;;5065446;28;20483;-63
2022/10/06 00:30:31;;;;;;;45.13;13.80;;;17.00;99.90;;;;;;5077222;28;20474;-63
2022/10/06 00:33:00;;;;;;;17.87;9.50;;;16.80;99.90;;;;;;5072063;28;20500;-63
2022/10/06 00:35:30;;;;;;;24.20;13.17;;;16.70;99.90;;;;;;5060264;28;20745;-63
2022/10/06 00:37:59;;;;;;;25.67;10.60;;;16.70;99.90;;;;;;5053989;28;20482;-63
2022/10/06 00:40:26;;;;;;;37.70;17.53;;;16.80;99.90;;;;;;5058070;28;20481;-62
2022/10/06 00:42:57;;;;;;;20.13;10.53;;;16.80;99.90;;;;;;5072089;28;20485;-63
2022/10/06 00:45:32;;;;;;;21.40;11.30;;;16.80;99.90;;;;;;5071528;28;20483;-63
2022/10/06 00:48:05;;;;;;;32.27;11.87;;;16.90;99.90;;;;;;5066496;28;20474;-63
2022/10/06 00:50:32;;;;;;;26.17;12.10;;;16.90;99.90;;;;;;5070604;28;20473;-62
2022/10/06 00:53:01;;;;;;;24.90;10.57;;;17.00;99.90;;;;;;5056054;28;20686;-63
2022/10/06 00:55:29;;;;;;;26.03;13.90;;;17.10;99.90;;;;;;5060592;28;21391;-63
2022/10/06 00:57:57;;;;;;;27.30;12.67;;;17.00;99.90;;;;;;5064203;28;20480;-63
2022/10/06 01:00:24;;;;;;;19.30;10.90;;;17.10;99.90;;;;;;5069354;28;20556;-63
2022/10/06 01:02:56;;;;;;;15.80;9.63;;;17.20;99.90;;;;;;5068266;28;20474;-63
2022/10/06 01:05:27;;;;;;;16.80;9.50;;;17.30;99.90;;;;;;5070476;28;20494;-63
2022/10/06 01:07:54;;;;;;;34.40;12.27;;;17.30;99.90;;;;;;5068646;28;20487;-63
2022/10/06 01:10:23;;;;;;;9.03;6.23;;;17.40;99.90;;;;;;5068403;28;20846;-63
2022/10/06 01:12:50;;;;;;;20.40;9.00;;;17.40;99.90;;;;;;5068852;28;20478;-63
2022/10/06 01:15:18;;;;;;;13.80;8.60;;;17.40;99.90;;;;;;5068445;28;20575;-63
2022/10/06 01:17:51;;;;;;;13.93;7.43;;;17.40;99.90;;;;;;5070448;28;20478;-63
2022/10/06 01:20:19;;;;;;;15.67;7.67;;;;;;;;;;5067822;28;20486;-63
2022/10/06 01:22:51;;;;;;;18.30;9.80;;;17.30;99.90;;;;;;5070106;28;20510;-63
2022/10/06 01:25:19;;;;;;;12.77;8.07;;;17.30;99.90;;;;;;5070931;28;20607;-63
2022/10/06 01:27:52;;;;;;;23.17;12.00;;;17.30;99.90;;;;;;5070790;28;20482;-63
2022/10/06 01:30:24;;;;;;;16.73;9.23;;;17.30;99.90;;;;;;5068698;28;20865;-63
2022/10/06 01:32:51;;;;;;;18.10;9.80;;;17.30;99.90;;;;;;5068114;28;20489;-62
2022/10/06 01:35:18;;;;;;;19.43;10.87;;;17.30;99.90;;;;;;5077200;28;20489;-63
2022/10/06 01:37:47;;;;;;;24.97;9.67;;;17.20;99.90;;;;;;5087351;28;20478;-63
2022/10/06 01:40:13;;;;;;;15.97;9.10;;;17.20;99.90;;;;;;5083696;28;20478;-63
2022/10/06 01:42:40;;;;;;;37.47;14.63;;;17.20;99.90;;;;;;5064040;28;20466;-63
2022/10/06 01:45:08;;;;;;;30.20;12.57;;;17.20;99.90;;;;;;5066310;28;20553;-63
2022/10/06 01:47:35;;;;;;;27.23;12.10;;;17.20;99.90;;;;;;5067146;28;20448;-63
2022/10/06 01:50:03;;;;;;;20.63;10.40;;;17.30;99.90;;;;;;5070062;28;20475;-63
2022/10/06 01:52:30;;;;;;;24.83;9.80;;;17.30;99.90;;;;;;5069825;28;20737;-63
2022/10/06 01:54:58;;;;;;;16.23;8.10;;;17.30;99.90;;;;;;5073848;28;20834;-63
2022/10/06 01:57:24;;;;;;;22.43;11.33;;;17.30;99.90;;;;;;5072751;28;20491;-63
2022/10/06 01:59:51;;;;;;;22.93;8.07;;;19.50;99.90;;;;;;5068180;28;20513;-62
2022/10/06 02:02:18;;;;;;;14.90;7.53;;;17.40;99.90;;;;;;5069972;28;20513;-63
2022/10/06 02:04:45;;;;;;;18.13;8.37;;;17.40;99.90;;;;;;5071973;28;20953;-62
2022/10/06 02:07:11;;;;;;;24.37;7.17;;;17.40;99.90;;;;;;5072381;28;20482;-63
2022/10/06 02:09:38;;;;;;;14.70;7.43;;;17.50;99.90;;;;;;5070296;28;21052;-63
2022/10/06 02:12:06;;;;;;;19.70;7.50;;;17.40;99.90;;;;;;5066668;28;20457;-63
2022/10/06 02:14:33;;;;;;;23.47;8.53;;;17.40;99.90;;;;;;5071121;28;20480;-63
2022/10/06 02:17:00;;;;;;;16.37;8.10;;;17.30;99.90;;;;;;5072350;28;20572;-63
2022/10/06 02:19:27;;;;;;;23.17;9.70;;;17.30;99.90;;;;;;5070472;28;20474;-63
2022/10/06 02:21:53;;;;;;;16.50;5.17;;;17.40;99.90;;;;;;5068847;28;20486;-62
2022/10/06 02:24:20;;;;;;;7.30;4.20;;;17.40;99.90;;;;;;5073020;28;20970;-63
2022/10/06 02:26:47;;;;;;;14.47;6.00;;;17.30;99.70;;;;;;5061461;28;20482;-62
2022/10/06 02:29:15;;;;;;;18.40;4.87;;;17.30;99.70;;;;;;5074505;28;20998;-63
2022/10/06 02:31:41;;;;;;;17.87;7.90;;;17.20;99.50;;;;;;5044181;28;20453;-63
2022/10/06 02:34:08;;;;;;;19.67;6.90;;;17.20;99.50;;;;;;5074880;28;20975;-63
2022/10/06 02:36:35;;;;;;;23.73;6.97;;;17.30;99.60;;;;;;5054991;28;20958;-62
2022/10/06 02:39:02;;;;;;;15.87;6.10;;;17.20;98.50;;;;;;5073330;28;20836;-62
2022/10/06 02:41:29;;;;;;;32.03;11.67;;;16.40;98.40;;;;;;5072043;28;20561;-61
2022/10/06 02:43:56;;;;;;;20.87;6.17;;;17.20;98.70;;;;;;5068165;28;20498;-61
2022/10/06 02:46:24;;;;;;;14.30;6.87;;;17.00;98.60;;;;;;5071656;28;20491;-62
2022/10/06 02:48:52;;;;;;;12.63;6.17;;;17.20;98.50;;;;;;5071480;28;20482;-61
2022/10/06 02:51:20;;;;;;;23.70;8.37;;;17.30;98.60;;;;;;5072580;28;20453;-62
2022/10/06 02:53:48;;;;;;;12.63;6.10;;;17.30;98.60;;;;;;5071375;28;20482;-62
2022/10/06 02:56:18;;;;;;;10.50;4.27;;;17.40;98.70;;;;;;5072247;28;20841;-62
2022/10/06 02:58:46;;;;;;;10.17;5.20;;;16.80;98.20;;;;;;5069820;28;20486;-61
2022/10/06 03:01:15;;;;;;;14.47;5.93;;;17.40;98.70;;;;;;5071893;28;20990;-62
2022/10/06 03:03:45;;;;;;;17.30;6.37;;;17.40;98.90;;;;;;5070797;28;21113;-62
2022/10/06 03:06:21;;;;;;;12.07;4.00;;;17.30;99.10;;;;;;5072421;28;20831;-62
2022/10/06 03:08:49;;;;;;;14.43;6.93;;;17.30;99.20;;;;;;5070706;28;20498;-61
2022/10/06 03:11:18;;;;;;;11.20;3.00;;;17.20;99.20;;;;;;5072088;28;20502;-62
2022/10/06 03:13:44;;;;;;;15.37;7.07;;;17.20;99.10;;;;;;5071977;28;20478;-61
2022/10/06 03:16:16;;;;;;;14.30;5.90;;;17.10;99.20;;;;;;5072467;28;20478;-61
2022/10/06 03:18:45;;;;;;;12.90;6.07;;;17.10;99.20;;;;;;5069907;28;20482;-61
2022/10/06 03:21:13;;;;;;;13.30;5.07;;;17.00;99.20;;;;;;5067923;28;20531;-61
2022/10/06 03:23:40;;;;;;;24.77;7.50;;;17.00;99.10;;;;;;5070596;28;20881;-62
2022/10/06 03:26:07;;;;;;;17.23;4.90;;;17.00;99.20;;;;;;5072234;28;20474;-61
2022/10/06 03:28:34;;;;;;;22.47;8.60;;;16.90;98.90;;;;;;5070795;28;21037;-62
2022/10/06 03:31:02;;;;;;;17.00;6.47;;;16.90;98.90;;;;;;5069747;28;20490;-61
2022/10/06 03:33:30;;;;;;;29.90;11.10;;;16.80;98.80;;;;;;5069440;28;21026;-61
2022/10/06 03:36:04;;;;;;;14.10;5.20;;;16.90;98.90;;;;;;5070839;28;20491;-62
2022/10/06 03:38:31;;;;;;;30.03;10.33;;;16.80;98.80;;;;;;5063160;28;20476;-62
2022/10/06 03:41:06;;;;;;;21.57;7.60;;;16.90;98.80;;;;;;5071695;28;20896;-61
2022/10/06 03:43:33;;;;;;;21.77;8.57;;;16.90;98.70;;;;;;5064855;28;20477;-61
2022/10/06 03:46:00;;;;;;;11.00;4.57;;;16.90;98.70;;;;;;5056136;28;20543;-61
2022/10/06 03:48:27;;;;;;;24.07;9.13;;;16.80;98.90;;;;;;5058906;28;20490;-61
2022/10/06 03:50:55;;;;;;;14.77;6.47;;;;;;;;;;5058875;28;20491;-61
2022/10/06 03:53:26;;;;;;;17.63;7.57;;;16.80;98.80;;;;;;5070360;28;20487;-61
2022/10/06 03:56:00;;;;;;;24.60;7.70;;;16.80;98.80;;;;;;5072500;28;20492;-61
2022/10/06 03:58:27;;;;;;;19.03;5.87;;;16.60;99.00;;;;;;5069336;28;20760;-61
2022/10/06 04:00:59;;;;;;;17.40;7.33;;;16.60;99.20;;;;;;5071044;28;20513;-61
2022/10/06 04:03:26;;;;;;;32.53;12.07;;;16.50;99.20;;;;;;5063563;28;20502;-61
2022/10/06 04:05:54;;;;;;;18.90;4.10;;;16.30;99.40;;;;;;5071658;28;20497;-61
2022/10/06 04:08:20;;;;;;;19.73;7.20;;;16.20;99.70;;;;;;5053482;28;20506;-62
2022/10/06 04:10:49;;;;;;;23.23;8.80;;;16.10;99.80;;;;;;5056587;28;20490;-61
2022/10/06 04:13:16;;;;;;;26.10;5.83;;;16.10;99.90;;;;;;5066274;28;20464;-61
2022/10/06 04:15:43;;;;;;;22.33;6.87;;;16.10;99.90;;;;;;5071647;28;20529;-61
2022/10/06 04:18:10;;;;;;;20.27;7.17;;;16.10;99.90;;;;;;5070095;28;20493;-61
2022/10/06 04:20:36;;;;;;;24.53;8.10;;;16.00;99.90;;;;;;5055024;28;20475;-61
2022/10/06 04:23:04;;;;;;;15.03;6.33;;;16.00;99.90;;;;;;5069432;28;20498;-61
2022/10/06 04:25:30;;;;;;;29.23;9.97;;;16.00;99.90;;;;;;5076436;28;20478;-61
2022/10/06 04:27:59;;;;;;;20.80;6.80;;;15.90;99.90;;;;;;5073622;28;20678;-61
2022/10/06 04:30:26;;;;;;;33.27;12.03;;;15.90;99.90;;;;;;5075188;28;20513;-61
2022/10/06 04:32:54;;;;;;;16.37;7.00;;;15.90;99.90;;;;;;5073045;28;20525;-61
2022/10/06 04:35:22;;;;;;;15.53;5.63;;;15.80;99.90;;;;;;5075265;28;20490;-61
2022/10/06 04:37:49;;;;;;;23.47;9.27;;;15.80;99.90;;;;;;5073137;28;20474;-61
2022/10/06 04:40:16;;;;;;;9.20;4.27;;;;;;;;;;5076012;28;20478;-61
2022/10/06 04:42:44;;;;;;;22.93;7.23;;;15.80;99.90;;;;;;5071693;28;20478;-61
2022/10/06 04:45:12;;;;;;;11.13;5.13;;;15.80;99.90;;;;;;5074609;28;22962;-61
2022/10/06 04:47:39;;;;;;;19.93;7.70;;;15.80;99.90;;;;;;5074520;28;20505;-61
2022/10/06 04:50:06;;;;;;;14.70;6.37;;;15.80;99.90;;;;;;5074829;28;20478;-61
2022/10/06 04:52:33;;;;;;;24.13;9.30;;;15.80;99.90;;;;;;5072947;28;20491;-61
2022/10/06 04:54:59;;;;;;;11.67;5.47;;;15.70;99.90;;;;;;5075290;28;20483;-62
2022/10/06 04:57:27;;;;;;;23.63;8.30;;;15.70;99.90;;;;;;5073844;28;20952;-61
2022/10/06 05:02:39;;;;;;;29.53;7.40;;;15.70;99.90;;;;;;5077525;28;20723;-61
2022/10/06 05:05:07;;;;;;;12.93;6.27;;;15.70;99.90;;;;;;5077353;28;20483;-61
2022/10/06 05:07:34;;;;;;;24.27;8.50;;;;;;;;;;5071262;28;20560;-62
2022/10/06 05:10:01;;;;;;;13.80;6.27;;;15.70;99.90;;;;;;5072166;28;20493;-62
2022/10/06 05:12:30;;;;;;;27.07;11.13;;;15.70;99.90;;;;;;5072986;28;20478;-62
2022/10/06 05:14:56;;;;;;;14.30;5.63;;;15.60;99.90;;;;;;5062236;28;20815;-61
2022/10/06 05:17:24;;;;;;;11.53;4.93;;;15.60;99.90;;;;;;5072181;28;20459;-63
2022/10/06 05:19:52;;;;;;;12.33;6.13;;;15.70;99.90;;;;;;5071008;28;20486;-62
2022/10/06 05:22:19;;;;;;;16.97;5.63;;;14.50;99.90;;;;;;5071536;28;20474;-62
2022/10/06 05:24:46;;;;;;;11.33;5.10;;;15.60;99.90;;;;;;5073500;28;20475;-63
2022/10/06 05:27:13;;;;;;;9.67;4.97;;;15.60;99.90;;;;;;5073767;28;20482;-63
2022/10/06 05:29:39;;;;;;;16.93;6.57;;;15.70;99.90;;;;;;5073134;28;20991;-63
2022/10/06 05:32:06;;;;;;;17.07;7.90;;;15.60;99.90;;;;;;5072312;28;20666;-63
2022/10/06 05:34:33;;;;;;;15.57;7.30;;;15.60;99.90;;;;;;5070159;28;20841;-63
2022/10/06 05:37:01;;;;;;;10.73;4.80;;;15.60;99.90;;;;;;5071548;28;20986;-62
2022/10/06 05:39:27;;;;;;;19.00;9.20;;;15.60;99.90;;;;;;5065900;28;20490;-63
2022/10/06 05:41:54;;;;;;;16.87;7.63;;;15.70;99.90;;;;;;5072587;28;20802;-63
2022/10/06 05:44:21;;;;;;;11.30;5.73;;;16.80;99.90;;;;;;5072303;28;20908;-63
2022/10/06 05:46:48;;;;;;;13.70;6.23;;;16.00;99.90;;;;;;5072431;28;20485;-63
2022/10/06 05:49:14;;;;;;;11.00;4.93;;;16.00;99.90;;;;;;5062952;28;20990;-63
2022/10/06 05:51:42;;;;;;;12.93;6.83;;;16.10;99.90;;;;;;5071495;28;20493;-63
2022/10/06 05:54:10;;;;;;;13.17;5.43;;;16.10;99.90;;;;;;5071283;28;21037;-63
2022/10/06 05:56:38;;;;;;;13.83;6.37;;;16.10;99.90;;;;;;5059097;28;20487;-63
2022/10/06 05:59:05;;;;;;;18.33;6.40;;;16.10;99.90;;;;;;5071914;28;20478;-63
2022/10/06 06:01:34;;;;;;;18.63;8.20;;;16.00;99.90;;;;;;5072158;28;20490;-63
2022/10/06 06:04:02;;;;;;;12.23;6.10;;;16.00;99.90;;;;;;5073377;28;20511;-63
2022/10/06 06:06:31;;;;;;;21.17;8.67;;;16.00;99.90;;;;;;5067982;28;20486;-63
2022/10/06 06:09:00;;;;;;;16.00;6.53;;;16.00;99.90;;;;;;5067896;28;20871;-63
2022/10/06 06:11:30;;;;;;;21.87;10.03;;;16.10;99.90;;;;;;5071594;28;20489;-63
2022/10/06 06:13:58;;;;;;;14.80;4.70;;;16.10;99.90;;;;;;5073304;28;20897;-62
2022/10/06 06:16:24;;;;;;;23.40;9.90;;;16.20;99.90;;;;;;5074476;28;20493;-62
2022/10/06 06:18:51;;;;;;;17.33;7.07;;;16.30;99.90;;;;;;5072912;28;20860;-63
2022/10/06 06:21:18;;;;;;;19.07;5.93;;;16.30;99.90;;;;;;5070300;28;20993;-62
2022/10/06 06:23:46;;;;;;;15.23;5.80;;;16.30;99.90;;;;;;5069539;28;20513;-63
2022/10/06 06:26:16;;;;;;;34.40;15.07;;;16.40;99.90;;;;;;5068780;28;20562;-63
2022/10/06 06:28:45;;;;;;;30.97;11.80;;;16.50;99.90;;;;;;5071613;28;20570;-63
2022/10/06 06:31:13;;;;;;;24.63;10.97;;;16.50;99.90;;;;;;5069535;28;20911;-63
2022/10/06 06:33:41;;;;;;;19.27;8.37;;;16.60;99.90;;;;;;5068973;28;20849;-63
2022/10/06 06:36:16;;;;;;;11.77;4.97;;;16.60;99.90;;;;;;5070375;28;20491;-63
2022/10/06 06:38:43;;;;;;;13.23;6.53;;;16.60;99.90;;;;;;5070423;28;20496;-63
2022/10/06 06:41:14;;;;;;;11.13;4.20;;;17.40;99.90;;;;;;5071481;28;20479;-63
2022/10/06 06:43:41;;;;;;;15.70;6.57;;;16.60;99.90;;;;;;5060208;28;20478;-63
2022/10/06 06:46:10;;;;;;;13.53;5.10;;;16.60;99.90;;;;;;5066643;28;20569;-63
2022/10/06 06:48:37;;;;;;;20.47;7.33;;;16.50;99.90;;;;;;5063630;28;20957;-63
2022/10/06 06:51:04;;;;;;;13.27;5.90;;;16.50;99.90;;;;;;5057937;28;20486;-63
2022/10/06 06:53:31;;;;;;;22.73;10.47;;;16.60;99.90;;;;;;5072190;28;20508;-63
2022/10/06 06:55:58;;;;;;;12.30;4.80;;;17.80;99.90;;;;;;5069562;28;20477;-63
2022/10/06 06:58:24;;;;;;;11.63;5.47;;;18.80;99.90;;;;;;5076046;28;20470;-63
2022/10/06 07:00:51;;;;;;;6.73;5.10;;;19.60;99.10;;;;;;5071629;28;20875;-62
2022/10/06 07:03:21;;;;;;;18.53;3.67;;;20.50;98.00;;;;;;5068646;28;20479;-63
2022/10/06 07:05:48;;;;;;;7.80;5.53;;;20.60;97.50;;;;;;5070625;28;20982;-63
2022/10/06 07:08:18;;;;;;;9.70;4.90;;;20.50;97.00;;;;;;5071593;28;20493;-63
2022/10/06 07:10:47;;;;;;;10.73;6.30;;;20.20;96.20;;;;;;5070111;28;20489;-63
2022/10/06 07:13:15;;;;;;;7.77;4.13;;;19.80;96.30;;;;;;5070211;28;20516;-63
2022/10/06 07:26:43;;;;;;;23.17;6.63;;;18.20;97.90;;;;;;5069384;28;20477;-63
2022/10/06 07:29:10;;;;;;;8.10;4.63;;;17.90;98.20;;;;;;5070445;28;20482;-63
2022/10/06 07:31:37;;;;;;;17.60;6.93;;;17.90;98.60;;;;;;5059644;28;21144;-63
2022/10/06 07:34:05;;;;;;;14.40;6.53;;;19.10;99.90;;;;;;5065601;28;20470;-63
2022/10/06 07:36:32;;;;;;;17.57;8.40;;;20.40;99.90;;;;;;5070418;28;20483;-63
2022/10/06 07:38:59;;;;;;;15.10;4.57;;;22.20;97.80;;;;;;5058578;28;20479;-63
2022/10/06 07:41:25;;;;;;;12.07;6.20;;;23.40;93.90;;;;;;5070737;28;20471;-64
2022/10/06 07:43:53;;;;;;;11.03;5.87;;;24.40;92.90;;;;;;5071256;28;20462;-63
2022/10/06 07:46:20;;;;;;;15.63;4.70;;;25.10;90.60;;;;;;5071910;28;20512;-64
2022/10/06 07:48:48;;;;;;;11.30;4.67;;;25.50;90.00;;;;;;5071794;28;20464;-64
2022/10/06 07:51:17;;;;;;;9.40;3.80;;;25.80;88.30;;;;;;5071577;28;20584;-64
2022/10/06 07:53:49;;;;;;;14.53;4.30;;;25.90;86.40;;;;;;5059689;28;20462;-64
2022/10/06 07:56:19;;;;;;;10.23;3.73;;;25.90;85.10;;;;;;5067822;28;20638;-64
2022/10/06 07:58:46;;;;;;;11.20;4.43;;;25.70;83.60;;;;;;5072482;28;20482;-64
2022/10/06 08:01:14;;;;;;;10.10;5.63;;;25.60;84.90;;;;;;5075515;28;20482;-64
2022/10/06 08:03:43;;;;;;;8.37;4.53;;;25.40;83.60;;;;;;5073747;28;20476;-64
2022/10/06 08:06:14;;;;;;;11.57;3.90;;;24.80;81.30;;;;;;5074290;28;20781;-64
2022/10/06 08:08:43;;;;;;;13.60;4.77;;;24.70;84.50;;;;;;5072542;28;20477;-64
2022/10/06 08:11:11;;;;;;;11.00;5.53;;;24.50;84.60;;;;;;5062685;28;20460;-63
2022/10/06 08:13:41;;;;;;;17.73;5.20;;;24.00;83.40;;;;;;5067528;28;20501;-64
2022/10/06 08:16:09;;;;;;;11.53;5.80;;;23.40;84.00;;;;;;5074973;28;20453;-64
2022/10/06 08:18:36;;;;;;;12.63;5.73;;;23.00;83.50;;;;;;5073626;28;20485;-63
2022/10/06 08:21:09;;;;;;;20.00;5.50;;;22.40;83.80;;;;;;5073023;28;20456;-63
2022/10/06 08:23:41;;;;;;;25.27;8.83;;;21.90;85.00;;;;;;5059954;28;20473;-62
2022/10/06 08:26:10;;;;;;;19.73;5.43;;;21.30;87.10;;;;;;5070731;28;20455;-63
2022/10/06 08:28:37;;;;;;;17.57;7.43;;;21.00;88.20;;;;;;5077630;28;20853;-63
2022/10/06 08:31:05;;;;;;;14.93;7.20;;;23.20;90.40;;;;;;5067832;28;20481;-64
2022/10/06 08:33:37;;;;;;;25.63;8.53;;;20.50;86.60;;;;;;5070451;28;20501;-63
2022/10/06 08:36:05;;;;;;;10.00;5.23;;;20.50;88.10;;;;;;5072476;28;20513;-63
2022/10/06 08:38:32;;;;;;;24.27;9.50;;;;;;;;;;5065344;28;20459;-62
2022/10/06 08:40:59;;;;;;;23.23;7.07;;;;;;;;;;5075333;28;20456;-63
2022/10/06 08:43:28;;;;;;;24.13;10.90;;;20.90;86.90;;;;;;5073976;28;20489;-64
2022/10/06 08:46:00;;;;;;;16.30;5.90;;;20.90;88.00;;;;;;5074906;28;20487;-63
2022/10/06 08:48:37;;;;;;;21.20;9.50;;;21.00;86.80;;;;;;5073683;28;20471;-64
2022/10/06 08:51:14;;;;;;;14.10;7.00;;;21.00;87.50;;;;;;5072454;28;21190;-64
2022/10/06 08:53:46;;;;;;;17.67;6.30;;;20.60;87.80;;;;;;5062801;28;20456;-64
2022/10/06 08:56:18;;;;;;;21.27;4.40;;;20.60;86.90;;;;;;5075145;28;20493;-63
2022/10/06 08:58:53;;;;;;;12.87;4.87;;;20.60;87.70;;;;;;5070268;28;20774;-63
2022/10/06 09:01:23;;;;;;;16.80;5.97;;;20.70;86.30;;;;;;5070575;28;21335;-63
2022/10/06 09:03:52;;;;;;;20.53;7.27;;;20.70;85.40;;;;;;5055976;28;20532;-63
2022/10/06 09:06:34;;;;;;;11.57;5.20;;;20.60;85.30;;;;;;5069676;28;20478;-64
2022/10/06 09:09:04;;;;;;;20.63;7.67;;;;;;;;;;5072171;28;21013;-63
2022/10/06 09:11:49;;;;;;;19.20;9.27;;;;;;;;;;5073814;28;20914;-64
2022/10/06 09:14:25;;;;;;;17.37;4.80;;;20.70;87.90;;;;;;5070807;28;21122;-63
2022/10/06 09:16:59;;;;;;;15.57;5.57;;;20.00;86.20;;;;;;5071681;28;20478;-63
2022/10/06 09:19:29;;;;;;;30.90;12.83;;;;;;;;;;5064093;28;20501;-64
2022/10/06 09:21:58;;;;;;;17.47;5.50;;;21.60;87.40;;;;;;5079637;28;20941;-63
2022/10/06 09:24:37;;;;;;;29.20;10.43;;;21.60;86.80;;;;;;5072140;28;20493;-64
2022/10/06 09:27:16;;;;;;;17.07;4.93;;;21.80;86.10;;;;;;5062717;28;20474;-63
2022/10/06 09:29:45;;;;;;;23.50;7.63;;;22.00;86.40;;;;;;5064095;28;20463;-63
2022/10/06 09:32:13;;;;;;;18.70;6.60;;;22.00;85.20;;;;;;5070962;28;20470;-64
2022/10/06 09:34:44;;;;;;;15.90;5.20;;;22.00;85.00;;;;;;5061556;28;20453;-64
2022/10/06 09:37:12;;;;;;;11.47;5.93;;;21.70;82.30;;;;;;5069950;28;21216;-64
2022/10/06 09:39:40;;;;;;;18.63;5.67;;;21.40;82.50;;;;;;5061407;28;20825;-63
2022/10/06 09:42:12;;;;;;;13.53;6.43;;;;;;;;;;5073125;28;20479;-64
2022/10/06 09:44:51;;;;;;;15.27;6.87;;;21.40;80.30;;;;;;5059959;28;20445;-64
2022/10/06 09:47:37;;;;;;;21.47;4.67;;;21.60;83.10;;;;;;5061594;28;20474;-64
2022/10/06 09:50:13;;;;;;;20.77;7.47;;;;;;;;;;5067949;28;20566;-64
2022/10/06 09:52:41;;;;;;;15.67;6.17;;;22.10;81.90;;;;;;5072495;28;20486;-64
2022/10/06 09:55:11;;;;;;;15.93;6.43;;;22.30;81.70;;;;;;5073844;28;20461;-64
2022/10/06 09:57:39;;;;;;;25.37;5.60;;;;;;;;;;5066744;28;20524;-64
2022/10/06 10:00:29;;;;;;;14.77;5.80;;;22.80;81.10;;;;;;5072875;28;20471;-64
2022/10/06 10:02:58;;;;;;;23.30;5.70;;;22.70;83.40;;;;;;5070266;28;20469;-64
2022/10/06 10:05:26;;;;;;;33.10;10.30;;;;;;;;;;5071911;28;20968;-64
2022/10/06 10:08:08;;;;;;;25.83;8.17;;;22.80;78.80;;;;;;5069210;28;20457;-63
2022/10/06 10:10:36;;;;;;;30.33;9.27;;;;;;;;;;5072721;28;20503;-64
2022/10/06 10:13:16;;;;;;;25.40;8.37;;;22.60;77.20;;;;;;5061278;28;20475;-64
2022/10/06 10:15:53;;;;;;;20.10;6.67;;;;;;;;;;5057774;28;21006;-64
2022/10/06 10:18:25;;;;;;;15.67;4.40;;;22.60;80.20;;;;;;5070108;28;20841;-64
2022/10/06 10:20:56;;;;;;;29.70;7.30;;;22.60;81.00;;;;;;5069629;28;21051;-63
2022/10/06 10:23:28;;;;;;;36.10;10.20;;;22.40;76.90;;;;;;5060882;28;20500;-64
2022/10/06 10:26:13;;;;;;;22.67;7.30;;;22.30;76.40;;;;;;5069232;28;20789;-64
2022/10/06 10:29:15;;;;;;;13.13;5.53;;;22.30;78.70;;;;;;5071125;28;20578;-64
2022/10/06 10:31:51;;;;;;;16.00;5.80;;;22.40;80.50;;;;;;5071965;28;20473;-64
2022/10/06 10:34:40;;;;;;;19.50;5.70;;;22.20;78.90;;;;;;5056178;28;20474;-64
2022/10/06 10:37:12;;;;;;;21.97;7.47;;;22.20;80.20;;;;;;5073409;28;20457;-65
2022/10/06 10:39:42;;;;;;;16.53;4.00;;;21.90;77.80;;;;;;5062509;28;20857;-64
2022/10/06 10:42:14;;;;;;;12.57;5.83;;;21.60;77.50;;;;;;5070103;28;20611;-64
2022/10/06 10:44:48;;;;;;;18.83;6.13;;;21.20;76.70;;;;;;5070830;28;20449;-64
2022/10/06 10:47:21;;;;;;;9.83;4.43;;;21.00;78.30;;;;;;5064085;28;20459;-64
2022/10/06 10:49:53;;;;;;;28.50;7.20;;;21.30;81.20;;;;;;5059701;28;20438;-64
2022/10/06 10:52:26;;;;;;;15.67;6.03;;;21.30;84.20;;;;;;5055164;28;20453;-64
2022/10/06 10:55:02;;;;;;;20.87;6.33;;;21.60;84.90;;;;;;5060134;28;20509;-63
2022/10/06 10:57:35;;;;;;;16.53;4.23;;;21.90;82.20;;;;;;5066210;28;20449;-64
2022/10/06 11:00:06;;;;;;;21.40;4.67;;;22.30;81.80;;;;;;5070485;28;20465;-64
2022/10/06 11:02:37;;;;;;;11.57;3.60;;;22.20;79.60;;;;;;5070259;28;20859;-65
2022/10/06 11:05:12;;;;;;;10.40;3.60;;;22.00;77.90;;;;;;5072206;28;20540;-64
2022/10/06 11:07:43;;;;;;;15.50;4.07;;;;;;;;;;5066408;28;20461;-64
2022/10/06 11:10:13;;;;;;;9.70;2.50;;;;;;;;;;5067242;28;20484;-64
2022/10/06 11:12:55;;;;;;;11.83;3.37;;;22.10;78.30;;;;;;5065314;28;20536;-64
2022/10/06 11:15:26;;;;;;;35.17;6.50;;;;;;;;;;5067528;28;20566;-64
2022/10/06 11:17:59;;;;;;;16.53;3.57;;;22.50;79.50;;;;;;5056710;28;20449;-64
2022/10/06 11:20:39;;;;;;;9.60;2.90;;;;;;;;;;5059406;28;20576;-64
2022/10/06 11:23:24;;;;;;;8.03;2.97;;;22.60;75.90;;;;;;5062216;28;20876;-64
2022/10/06 11:26:01;;;;;;;17.50;2.63;;;22.80;76.00;;;;;;5072773;28;20452;-63
2022/10/06 11:28:36;;;;;;;8.90;3.27;;;22.90;71.60;;;;;;5057674;28;20474;-63
2022/10/06 11:31:10;;;;;;;15.13;3.43;;;22.80;73.20;;;;;;5069584;28;20440;-64
2022/10/06 11:33:42;;;;;;;4.23;1.83;;;;;;;;;;5073810;28;20493;-64
2022/10/06 11:36:12;;;;;;;7.03;2.27;;;;;;;;;;5074379;28;20769;-64
2022/10/06 11:38:43;;;;;;;13.13;2.50;;;;;;;;;;5074111;28;20574;-64
2022/10/06 11:41:18;;;;;;;4.70;1.50;;;23.50;79.00;;;;;;5071952;28;20510;-64
2022/10/06 11:43:49;;;;;;;6.80;1.50;;;;;;;;;;5074654;28;20448;-64
2022/10/06 11:46:29;;;;;;;8.57;1.93;;;;;;;;;;5073326;28;20460;-64
2022/10/06 11:49:31;;;;;;;11.53;1.80;;;23.20;72.80;;;;;;5074128;28;20444;-64
2022/10/06 11:52:19;;;;;;;7.63;2.07;;;;;;;;;;5075329;28;20498;-64
2022/10/06 11:54:49;;;;;;;8.00;1.97;;;23.70;71.30;;;;;;5075449;28;20888;-64
2022/10/06 11:57:31;;;;;;;9.70;2.03;;;23.70;72.10;;;;;;5076038;28;20469;-64
2022/10/06 12:00:39;;;;;;;22.37;2.67;;;23.50;72.20;;;;;;5074929;28;20477;-64
2022/10/06 12:03:54;;;;;;;11.73;2.00;;;23.50;74.30;;;;;;5055267;28;20486;-64
2022/10/06 12:06:51;;;;;;;10.87;2.50;;;23.60;73.10;;;;;;5074450;28;20474;-64
2022/10/06 12:09:39;;;;;;;10.80;2.37;;;23.70;74.60;;;;;;5056562;28;20830;-64
2022/10/06 12:12:52;;;;;;;5.60;1.50;;;23.90;74.20;;;;;;5072386;28;20456;-65
2022/10/06 12:15:36;;;;;;;11.47;1.90;;;;;;;;;;5074668;28;20960;-65
2022/10/06 12:18:06;;;;;;;12.33;3.87;;;;;;;;;;5064528;28;20478;-64
2022/10/06 12:20:45;;;;;;;5.33;1.50;;;24.10;70.70;;;;;;5065985;28;20452;-64
2022/10/06 12:23:16;;;;;;;9.93;1.87;;;;;;;;;;5066620;28;21027;-64
2022/10/06 12:25:50;;;;;;;12.63;2.20;;;23.90;63.20;;;;;;5046489;28;20570;-64
2022/10/06 12:28:28;;;;;;;8.13;2.97;;;23.70;63.10;;;;;;5071291;28;21106;-64
2022/10/06 12:31:16;;;;;;;9.33;2.40;;;23.70;66.30;;;;;;5079445;28;20455;-64
2022/10/06 12:33:44;;;;;;;6.90;2.70;;;23.60;66.20;;;;;;5062672;28;20859;-63
2022/10/06 12:36:18;;;;;;;16.67;2.30;;;23.40;65.80;;;;;;5067699;28;21342;-64
2022/10/06 12:39:03;;;;;;;5.90;1.80;;;23.30;69.30;;;;;;5071188;28;20502;-64
2022/10/06 12:41:50;;;;;;;8.87;2.50;;;;;;;;;;5074623;28;21091;-64
2022/10/06 12:44:24;;;;;;;8.20;2.10;;;23.50;65.40;;;;;;5071239;28;20829;-64
2022/10/06 12:46:51;;;;;;;5.17;1.67;;;23.60;63.70;;;;;;5077301;28;21067;-64
2022/10/06 12:49:35;;;;;;;14.47;1.67;;;23.40;64.70;;;;;;5073891;28;20918;-64
2022/10/06 12:52:17;;;;;;;9.70;1.80;;;23.30;68.00;;;;;;5072415;28;20482;-64
2022/10/06 12:54:55;;;;;;;7.53;1.77;;;23.40;70.10;;;;;;5037628;28;20451;-64
2022/10/06 12:57:27;;;;;;;12.93;2.80;;;;;;;;;;5039775;28;20515;-65
2022/10/06 12:59:55;;;;;;;8.73;2.23;;;22.90;63.60;;;;;;5036002;28;20577;-64
2022/10/06 13:02:25;;;;;;;10.20;2.30;;;22.70;66.90;;;;;;5034460;28;20462;-64
2022/10/06 13:04:53;;;;;;;8.23;2.77;;;22.70;69.00;;;;;;5039507;28;20729;-65
2022/10/06 13:07:23;;;;;;;7.60;1.77;;;22.50;68.50;;;;;;5029910;28;20469;-64
2022/10/06 13:09:53;;;;;;;12.20;2.50;;;22.70;71.50;;;;;;5045876;28;20464;-64
2022/10/06 13:12:28;;;;;;;10.13;2.00;;;22.90;69.40;;;;;;5044958;28;20455;-63
2022/10/06 13:15:18;;;;;;;19.23;2.73;;;23.00;72.30;;;;;;5067998;28;20996;-64
2022/10/06 13:17:49;;;;;;;14.00;2.50;;;23.00;68.40;;;;;;5057352;28;20449;-64